Time;durP1;ratioP1;P1;durP2;ratioP2;P2;SDS_P1;SDS_P2;PMS_P1;PMS_P2;Temp;Humidity;BMP_temperature;BMP_pressure;BME280_temperature;BME280_humidity;BME280_pressure;Samples;Min_cycle;Max_cycle;Signal;HPM_P1;HPM_P2
2022/04/13 00:04:01;;;;;;;;;;;;;;;;;;21009037;28;20024;-65
2022/04/13 00:14:03;;;;;;;;;;;;;;;;;;21005555;28;19931;-66
2022/04/13 00:24:05;;;;;;;;;;;;;;;;;;21005210;28;19953;-68
2022/04/13 00:34:07;;;;;;;;;;;;;;;;;;21005323;28;19920;-67
2022/04/13 00:44:09;;;;;;;;;;;;;;;;;;21002834;28;20400;-66
2022/04/13 00:54:11;;;;;;;;;;;;;;;;;;21003886;28;19921;-62
2022/04/13 01:04:13;;;;;;;;;;;;;;;;;;21002472;28;19920;-65
2022/04/13 01:14:15;;;;;;;;;;;;;;;;;;21002287;28;20354;-63
2022/04/13 01:24:18;;;;;;;;;;;;;;;;;;21002003;28;19927;-67
2022/04/13 01:34:22;;;;;;;;;;;;;;;;;;20999003;28;19967;-69
2022/04/13 01:44:27;;;;;;;;;;;;;;;;;;20998237;28;19920;-67
2022/04/13 01:54:32;;;;;;;;;;;;;;;;;;20980467;28;19920;-69
2022/04/13 02:04:36;;;;;;;;;;;;;;;;;;20998123;28;20389;-69
2022/04/13 02:14:40;;;;;;;;;;;;;;;;;;20996230;28;19954;-62
2022/04/13 02:24:45;;;;;;;;;;;;;;;;;;20996034;28;20278;-69
2022/04/13 02:34:50;;;;;;;;;;;;;;;;;;20995593;28;20286;-69
2022/04/13 02:44:53;;;;;;;;;;;;;;;;;;20995374;28;19969;-67
2022/04/13 02:54:56;;;;;;;;;;;;;;;;;;20994781;28;19921;-68
2022/04/13 03:04:59;;;;;;;;;;;;;;;;;;20982421;28;19959;-64
2022/04/13 03:15:01;;;;;;;;;;;;;;;;;;20994201;28;19927;-69
2022/04/13 03:25:04;;;;;;;;;;;;;;;;;;21010358;28;19920;-71
2022/04/13 03:35:05;;;;;;;;;;;;;;;;;;21009102;28;19924;-63
2022/04/13 03:45:08;;;;;;;;;;;;;;;;;;21007827;28;19920;-68
2022/04/13 03:55:11;;;;;;;;;;;;;;;;;;21007363;28;19921;-69
2022/04/13 04:05:12;;;;;;;;;;;;;;;;;;20988478;28;19965;-66
2022/04/13 04:15:15;;;;;;;;;;;;;;;;;;21004933;28;20432;-69
2022/04/13 04:25:17;;;;;;;;;;;;;;;;;;21005258;28;19927;-70
2022/04/13 04:35:21;;;;;;;;;;;;;;;;;;21004221;28;19955;-68
2022/04/13 04:45:23;;;;;;;;;;;;;;;;;;21003478;28;20007;-67
2022/04/13 04:55:25;;;;;;;;;;;;;;;;;;21003594;28;19960;-69
2022/04/13 05:05:27;;;;;;;;;;;;;;;;;;21002228;28;19920;-68
2022/04/13 05:15:29;;;;;;;;;;;;;;;;;;21001219;28;19927;-69
2022/04/13 05:25:31;;;;;;;;;;;;;;;;;;21000230;28;19921;-67
2022/04/13 05:35:34;;;;;;;;;;;;;;;;;;20998843;28;19920;-72
2022/04/13 05:45:36;;;;;;;;;;;;;;;;;;20998815;28;19920;-69
2022/04/13 05:55:38;;;;;;;;;;;;;;;;;;20998021;28;19920;-69
2022/04/13 06:05:40;;;;;;;;;;;;;;;;;;20997170;28;19920;-64
2022/04/13 06:15:44;;;;;;;;;;;;;;;;;;20979045;28;20374;-70
2022/04/13 06:25:46;;;;;;;;;;;;;;;;;;20996232;28;19921;-64
2022/04/13 06:35:49;;;;;;;;;;;;;;;;;;20995536;28;19920;-71
2022/04/13 06:45:52;;;;;;;;;;;;;;;;;;20994750;28;19924;-72
2022/04/13 06:55:54;;;;;;;;;;;;;;;;;;20995753;28;20294;-72
2022/04/13 07:05:56;;;;;;;;;;;;;;;;;;20994074;28;20010;-63
2022/04/13 07:15:58;;;;;;;;;;;;;;;;;;20976579;28;19920;-71
2022/04/13 07:25:59;;;;;;;;;;;;;;;;;;20994225;28;20352;-69
2022/04/13 07:36:02;;;;;;;;;;;;;;;;;;20992474;28;19920;-68
2022/04/13 07:46:04;;;;;;;;;;;;;;;;;;20991809;28;19921;-69
2022/04/13 07:56:07;;;;;;;;;;;;;;;;;;21004659;28;19931;-69
2022/04/13 08:06:11;;;;;;;;;;;;;;;;;;21007514;28;19925;-70
2022/04/13 08:16:13;;;;;;;;;;;;;;;;;;21005204;28;19924;-63
2022/04/13 08:26:16;;;;;;;;;;;;;;;;;;21005411;28;19966;-63
2022/04/13 08:36:18;;;;;;;;;;;;;;;;;;21003873;28;19927;-62
2022/04/13 08:46:20;;;;;;;;;;;;;;;;;;20985646;28;19927;-65
2022/04/13 08:56:22;;;;;;;;;;;;;;;;;;21003458;28;20060;-66
2022/04/13 09:06:24;;;;;;;;;;;;;;;;;;21001214;28;19974;-65
2022/04/13 09:16:26;;;;;;;;;;;;;;;;;;21002129;28;19928;-66
2022/04/13 09:26:29;;;;;;;;;;;;;;;;;;21001016;28;19995;-65
2022/04/13 09:36:30;;;;;;;;;;;;;;;;;;21000490;28;19920;-63
2022/04/13 09:46:33;;;;;;;;;;;;;;;;;;20999135;28;20294;-63
2022/04/13 09:56:35;;;;;;;;;;;;;;;;;;20997872;28;19920;-63
2022/04/13 10:06:37;;;;;;;;;;;;;;;;;;20997144;28;20058;-63
2022/04/13 10:16:39;;;;;;;;;;;;;;;;;;20984334;28;19994;-60
2022/04/13 10:37:01;;;;;;;;;;;;;;;;;;20943765;28;19921;-69
2022/04/13 10:47:03;;;;;;;;;;;;;;;;;;20931365;28;19924;-58
2022/04/13 10:57:05;;;;;;;;;;;;;;;;;;20922578;28;19943;-57
2022/04/13 11:07:07;;;;;;;;;;;;;;;;;;20992077;28;19920;-70
2022/04/13 11:17:09;;;;;;;;;;;;;;;;;;20994177;28;19920;-70
2022/04/13 11:27:11;;;;;;;;;;;;;;;;;;21002028;28;20002;-71
2022/04/13 11:37:13;;;;;;;;;;;;;;;;;;21008871;28;20286;-67
2022/04/13 11:47:15;;;;;;;;;;;;;;;;;;21008169;28;20291;-69
2022/04/13 11:57:17;;;;;;;;;;;;;;;;;;21007355;28;19992;-71
2022/04/13 12:07:19;;;;;;;;;;;;;;;;;;21006223;28;19921;-69
2022/04/13 12:17:22;;;;;;;;;;;;;;;;;;21006344;28;19927;-72
2022/04/13 12:27:24;;;;;;;;;;;;;;;;;;21007203;28;20416;-71
2022/04/13 12:37:27;;;;;;;;;;;;;;;;;;21005095;28;19927;-71
2022/04/13 12:47:28;;;;;;;;;;;;;;;;;;21003879;28;19920;-76
2022/04/13 12:57:30;;;;;;;;;;;;;;;;;;21004616;28;20251;-71
2022/04/13 13:07:33;;;;;;;;;;;;;;;;;;21002078;28;19921;-69
2022/04/13 13:17:39;;;;;;;;;;;;;;;;;;21000937;28;19966;-70
2022/04/13 13:27:42;;;;;;;;;;;;;;;;;;21001193;28;20255;-68
2022/04/13 13:37:44;;;;;;;;;;;;;;;;;;21000090;28;19924;-69
2022/04/13 13:47:46;;;;;;;;;;;;;;;;;;20998510;28;20444;-70
2022/04/13 13:57:48;;;;;;;;;;;;;;;;;;20997646;28;19921;-68
2022/04/13 14:07:50;;;;;;;;;;;;;;;;;;20996517;28;19920;-69
2022/04/13 14:17:52;;;;;;;;;;;;;;;;;;20995955;28;20023;-68
2022/04/13 14:27:54;;;;;;;;;;;;;;;;;;20995196;28;19924;-68
2022/04/13 14:37:56;;;;;;;;;;;;;;;;;;20994481;28;20059;-69
2022/04/13 14:47:58;;;;;;;;;;;;;;;;;;20994120;28;20374;-68
2022/04/13 14:57:59;;;;;;;;;;;;;;;;;;20993715;28;19920;-68
2022/04/13 15:08:01;;;;;;;;;;;;;;;;;;20993947;28;19921;-66
2022/04/13 15:18:03;;;;;;;;;;;;;;;;;;20994456;28;20003;-66
2022/04/13 15:28:05;;;;;;;;;;;;;;;;;;20994738;28;20423;-63
2022/04/13 15:38:07;;;;;;;;;;;;;;;;;;20974328;28;19986;-61
2022/04/13 15:48:09;;;;;;;;;;;;;;;;;;20992137;28;19924;-60
2022/04/13 15:58:11;;;;;;;;;;;;;;;;;;20992045;28;19931;-61
2022/04/13 16:08:13;;;;;;;;;;;;;;;;;;20992504;28;19920;-65
2022/04/13 16:18:16;;;;;;;;;;;;;;;;;;20987374;28;20074;-63
2022/04/13 16:28:18;;;;;;;;;;;;;;;;;;21005808;28;20416;-62
2022/04/13 16:38:22;;;;;;;;;;;;;;;;;;21003459;28;19960;-63
2022/04/13 16:48:24;;;;;;;;;;;;;;;;;;20986655;28;20267;-62
2022/04/13 16:58:26;;;;;;;;;;;;;;;;;;21003725;28;19920;-69
2022/04/13 17:08:28;;;;;;;;;;;;;;;;;;21002492;28;20386;-63
2022/04/13 17:18:30;;;;;;;;;;;;;;;;;;21000957;28;19920;-63
2022/04/13 17:28:32;;;;;;;;;;;;;;;;;;20999023;28;20012;-73
2022/04/13 17:38:34;;;;;;;;;;;;;;;;;;20998636;28;19967;-70
2022/04/13 17:48:38;;;;;;;;;;;;;;;;;;20997991;28;19927;-74
2022/04/13 17:58:40;;;;;;;;;;;;;;;;;;20980490;28;20006;-72
2022/04/13 18:08:42;;;;;;;;;;;;;;;;;;20996317;28;20011;-72
2022/04/13 18:18:45;;;;;;;;;;;;;;;;;;20996344;28;19924;-71
2022/04/13 18:28:47;;;;;;;;;;;;;;;;;;20996446;28;19920;-69
2022/04/13 18:38:55;;;;;;;;;;;;;;;;;;20993655;28;19970;-68
2022/04/13 18:48:58;;;;;;;;;;;;;;;;;;20976623;28;19921;-70
2022/04/13 18:59:01;;;;;;;;;;;;;;;;;;20993868;28;20043;-63
2022/04/13 19:09:03;;;;;;;;;;;;;;;;;;20994362;28;20282;-74
2022/04/13 19:19:05;;;;;;;;;;;;;;;;;;20994084;28;20390;-72
2022/04/13 19:29:07;;;;;;;;;;;;;;;;;;20993883;28;20382;-74
2022/04/13 19:39:09;;;;;;;;;;;;;;;;;;20991740;28;19920;-76
2022/04/13 19:49:11;;;;;;;;;;;;;;;;;;21001672;28;19927;-73
2022/04/13 19:59:13;;;;;;;;;;;;;;;;;;20989784;28;19924;-71
2022/04/13 20:09:15;;;;;;;;;;;;;;;;;;21005839;28;19921;-71
2022/04/13 20:19:17;;;;;;;;;;;;;;;;;;21006710;28;19920;-70
2022/04/13 20:29:19;;;;;;;;;;;;;;;;;;21005262;28;19971;-70
2022/04/13 20:39:22;;;;;;;;;;;;;;;;;;21004859;28;20282;-63
2022/04/13 20:49:24;;;;;;;;;;;;;;;;;;21003996;28;20392;-63
2022/04/13 20:59:26;;;;;;;;;;;;;;;;;;21002990;28;19971;-71
2022/04/13 21:09:28;;;;;;;;;;;;;;;;;;21002987;28;19921;-68
2022/04/13 21:19:31;;;;;;;;;;;;;;;;;;21001427;28;19921;-63
2022/04/13 21:29:33;;;;;;;;;;;;;;;;;;21000736;28;19920;-65
2022/04/13 21:39:35;;;;;;;;;;;;;;;;;;20998934;28;19927;-63
2022/04/13 21:49:37;;;;;;;;;;;;;;;;;;20998796;28;20001;-69
2022/04/13 21:59:39;;;;;;;;;;;;;;;;;;20999085;28;20290;-73
2022/04/13 22:09:41;;;;;;;;;;;;;;;;;;20996957;28;19924;-68
2022/04/13 22:19:43;;;;;;;;;;;;;;;;;;20996186;28;20046;-70
2022/04/13 22:29:45;;;;;;;;;;;;;;;;;;20995653;28;20004;-72
2022/04/13 22:39:47;;;;;;;;;;;;;;;;;;20994599;28;19921;-69
2022/04/13 22:49:49;;;;;;;;;;;;;;;;;;20995052;28;19927;-71
2022/04/13 22:59:51;;;;;;;;;;;;;;;;;;20995103;28;20011;-62
2022/04/13 23:09:53;;;;;;;;;;;;;;;;;;20994537;28;20069;-64
2022/04/13 23:19:55;;;;;;;;;;;;;;;;;;20996135;28;19920;-65
2022/04/13 23:29:57;;;;;;;;;;;;;;;;;;21011092;28;19962;-63
2022/04/13 23:39:59;;;;;;;;;;;;;;;;;;21009104;28;19927;-64
2022/04/13 23:50:01;;;;;;;;;;;;;;;;;;21008826;28;19920;-63
